Time;durP1;ratioP1;P1;durP2;ratioP2;P2;SDS_P1;SDS_P2;PMS_P1;PMS_P2;Temp;Humidity;BMP_temperature;BMP_pressure;BME280_temperature;BME280_humidity;BME280_pressure;Samples;Min_cycle;Max_cycle;Signal;HPM_P1;HPM_P2
2022/04/15 00:00:44;;;;;;;11.80;9.40;;;;;;;;;;4993441;28;20427;-50
2022/04/15 00:03:11;;;;;;;12.20;9.60;;;;;;;;;;4992804;28;20421;-50
2022/04/15 00:05:40;;;;;;;16.10;9.07;;;;;;;;;;4992593;28;20488;-50
2022/04/15 00:08:07;;;;;;;12.20;9.47;;;;;;;;;;4977520;28;20753;-51
2022/04/15 00:10:33;;;;;;;11.33;9.63;;;;;;;;;;4992665;28;20463;-51
2022/04/15 00:12:59;;;;;;;12.50;9.40;;;;;;;;;;4993082;28;20976;-51
2022/04/15 00:15:26;;;;;;;14.40;8.77;;;;;;;;;;4993058;28;20428;-51
2022/04/15 00:17:52;;;;;;;13.37;9.17;;;;;;;;;;4992789;28;20494;-50
2022/04/15 00:20:18;;;;;;;12.80;9.33;;;;;;;;;;4993239;28;20408;-51
2022/04/15 00:22:44;;;;;;;14.93;9.27;;;;;;;;;;4993188;28;20405;-51
2022/04/15 00:25:10;;;;;;;12.97;9.30;;;;;;;;;;4992855;28;20511;-51
2022/04/15 00:27:36;;;;;;;14.73;9.67;;;;;;;;;;4991765;28;20458;-50
2022/04/15 00:30:03;;;;;;;17.00;8.93;;;;;;;;;;4992818;28;20495;-50
2022/04/15 00:32:29;;;;;;;11.23;9.17;;;;;;;;;;4992933;28;20780;-51
2022/04/15 00:34:55;;;;;;;19.50;10.13;;;;;;;;;;4992553;28;20412;-50
2022/04/15 00:37:21;;;;;;;14.50;8.77;;;;;;;;;;4992676;28;20827;-52
2022/04/15 00:39:47;;;;;;;13.60;9.20;;;;;;;;;;4992803;28;20430;-51
2022/04/15 00:42:13;;;;;;;12.80;8.93;;;;;;;;;;4992789;28;20900;-51
2022/04/15 00:44:39;;;;;;;11.87;9.30;;;;;;;;;;4992574;28;20411;-51
2022/04/15 00:47:10;;;;;;;19.20;9.03;;;;;;;;;;4992445;28;20408;-50
2022/04/15 00:49:36;;;;;;;14.50;9.30;;;;;;;;;;4992530;28;20415;-50
2022/04/15 00:52:02;;;;;;;12.10;8.70;;;;;;;;;;4992566;28;20408;-50
2022/04/15 00:54:30;;;;;;;19.73;9.10;;;;;;;;;;4992325;28;20427;-52
2022/04/15 00:56:58;;;;;;;10.90;9.80;;;;;;;;;;4992324;28;20937;-50
2022/04/15 00:59:25;;;;;;;13.17;9.57;;;;;;;;;;4992344;28;20797;-50
2022/04/15 01:01:52;;;;;;;17.30;9.07;;;;;;;;;;4992040;28;20774;-50
2022/04/15 01:04:19;;;;;;;10.80;8.50;;;;;;;;;;4991922;28;20654;-50
2022/04/15 01:06:47;;;;;;;11.57;9.47;;;;;;;;;;4991973;28;20435;-51
2022/04/15 01:09:14;;;;;;;12.73;9.70;;;;;;;;;;4992267;28;20892;-50
2022/04/15 01:11:42;;;;;;;12.30;9.40;;;;;;;;;;4992320;28;20412;-51
2022/04/15 01:14:09;;;;;;;12.03;8.90;;;;;;;;;;4996748;28;20422;-51
2022/04/15 01:16:35;;;;;;;10.47;8.27;;;;;;;;;;4998513;28;20478;-50
2022/04/15 01:19:00;;;;;;;12.57;9.27;;;;;;;;;;4998695;28;20404;-51
2022/04/15 01:21:30;;;;;;;11.90;9.13;;;;;;;;;;4998853;28;20946;-51
2022/04/15 01:23:56;;;;;;;13.17;9.90;;;;;;;;;;4998757;28;20902;-49
2022/04/15 01:26:22;;;;;;;13.87;9.90;;;;;;;;;;4998661;28;20466;-53
2022/04/15 01:28:48;;;;;;;13.10;9.40;;;;;;;;;;4998948;28;20396;-46
2022/04/15 01:31:14;;;;;;;17.77;11.10;;;;;;;;;;4998827;28;20435;-46
2022/04/15 01:33:40;;;;;;;25.77;11.70;;;;;;;;;;4998749;28;20442;-46
2022/04/15 01:36:06;;;;;;;15.93;10.20;;;;;;;;;;4998604;28;20464;-51
2022/04/15 01:38:32;;;;;;;14.93;10.40;;;;;;;;;;4998524;28;20466;-52
2022/04/15 01:40:58;;;;;;;17.17;10.00;;;;;;;;;;4998733;28;20407;-52
2022/04/15 01:43:24;;;;;;;15.40;10.60;;;;;;;;;;4998620;28;20407;-51
2022/04/15 01:45:50;;;;;;;15.33;10.67;;;;;;;;;;4998351;28;20416;-53
2022/04/15 01:48:16;;;;;;;12.30;10.20;;;;;;;;;;4998612;28;20404;-51
2022/04/15 01:50:42;;;;;;;11.80;10.27;;;;;;;;;;4998499;28;20409;-52
2022/04/15 01:53:08;;;;;;;13.63;9.67;;;;;;;;;;4998502;28;20883;-52
2022/04/15 01:55:34;;;;;;;13.17;10.63;;;;;;;;;;4998228;28;20800;-51
2022/04/15 01:58:00;;;;;;;19.17;9.40;;;;;;;;;;4998594;28;20459;-50
2022/04/15 02:00:26;;;;;;;16.33;10.83;;;;;;;;;;4998474;28;20746;-52
2022/04/15 02:02:53;;;;;;;14.40;10.40;;;;;;;;;;4998376;28;20435;-51
2022/04/15 02:05:19;;;;;;;16.07;10.50;;;;;;;;;;4998625;28;20817;-52
2022/04/15 02:07:45;;;;;;;11.17;9.80;;;;;;;;;;4998326;28;20397;-51
2022/04/15 02:10:11;;;;;;;12.97;9.10;;;;;;;;;;4998426;28;20414;-50
2022/04/15 02:12:38;;;;;;;13.40;8.90;;;;;;;;;;4998390;28;20439;-52
2022/04/15 02:15:05;;;;;;;16.20;10.10;;;;;;;;;;4998148;28;20434;-51
2022/04/15 02:17:31;;;;;;;14.90;10.13;;;;;;;;;;4998054;28;20486;-52
2022/04/15 02:19:57;;;;;;;12.50;9.77;;;;;;;;;;4998698;28;20426;-52
2022/04/15 02:22:22;;;;;;;15.93;10.53;;;;;;;;;;4998572;28;20490;-52
2022/04/15 02:24:48;;;;;;;14.10;10.80;;;;;;;;;;4995561;28;20396;-52
2022/04/15 02:27:14;;;;;;;16.37;10.53;;;;;;;;;;4995237;28;20995;-53
2022/04/15 02:29:40;;;;;;;15.37;10.40;;;;;;;;;;4995120;28;20753;-50
2022/04/15 02:32:07;;;;;;;18.97;10.57;;;;;;;;;;4995056;28;20404;-52
2022/04/15 02:34:32;;;;;;;22.80;10.60;;;;;;;;;;4994792;28;20903;-51
2022/04/15 02:36:58;;;;;;;17.50;10.87;;;;;;;;;;4994879;28;20470;-51
2022/04/15 02:39:24;;;;;;;16.10;11.00;;;;;;;;;;4995158;28;20422;-51
2022/04/15 02:41:52;;;;;;;11.77;9.43;;;;;;;;;;4994960;28;20404;-52
2022/04/15 02:44:18;;;;;;;16.20;11.30;;;;;;;;;;4994887;28;20423;-51
2022/04/15 02:46:44;;;;;;;15.50;11.20;;;;;;;;;;4994761;28;20451;-53
2022/04/15 02:49:11;;;;;;;16.77;11.20;;;;;;;;;;4994677;28;20888;-52
2022/04/15 02:51:37;;;;;;;15.27;11.60;;;;;;;;;;4994777;28;20404;-52
2022/04/15 02:54:03;;;;;;;14.23;10.63;;;;;;;;;;4994712;28;20404;-52
2022/04/15 02:56:29;;;;;;;14.70;10.60;;;;;;;;;;4994345;28;20466;-53
2022/04/15 02:58:56;;;;;;;13.80;11.10;;;;;;;;;;4994526;28;20404;-52
2022/04/15 03:01:21;;;;;;;14.93;12.00;;;;;;;;;;4994564;28;20461;-52
2022/04/15 03:03:48;;;;;;;20.77;13.33;;;;;;;;;;4994349;28;20815;-52
2022/04/15 03:06:14;;;;;;;16.80;12.47;;;;;;;;;;4993969;28;20470;-52
2022/04/15 03:08:41;;;;;;;19.90;12.73;;;;;;;;;;4994145;28;20428;-52
2022/04/15 03:11:07;;;;;;;19.87;13.30;;;;;;;;;;4994728;28;20839;-52
2022/04/15 03:13:33;;;;;;;17.40;12.70;;;;;;;;;;4994439;28;20400;-52
2022/04/15 03:15:59;;;;;;;17.00;13.37;;;;;;;;;;4993958;28;20433;-52
2022/04/15 03:18:26;;;;;;;22.00;13.73;;;;;;;;;;4994270;28;20462;-52
2022/04/15 03:20:52;;;;;;;16.53;12.60;;;;;;;;;;4994219;28;20411;-52
2022/04/15 03:23:19;;;;;;;19.67;13.30;;;;;;;;;;4994216;28;20915;-52
2022/04/15 03:25:46;;;;;;;21.90;14.43;;;;;;;;;;4993877;28;20862;-51
2022/04/15 03:28:12;;;;;;;17.30;12.50;;;;;;;;;;4994136;28;20665;-52
2022/04/15 03:30:38;;;;;;;20.97;13.47;;;;;;;;;;4993938;28;20411;-51
2022/04/15 03:33:05;;;;;;;17.67;13.03;;;;;;;;;;4994076;28;20414;-52
2022/04/15 03:35:31;;;;;;;14.63;12.03;;;;;;;;;;4993652;28;20433;-52
2022/04/15 03:37:57;;;;;;;18.93;13.67;;;;;;;;;;4993467;28;20549;-52
2022/04/15 03:40:23;;;;;;;17.40;13.10;;;;;;;;;;4993906;28;20415;-52
2022/04/15 03:42:50;;;;;;;17.80;11.93;;;;;;;;;;4993826;28;20450;-52
2022/04/15 03:45:22;;;;;;;18.90;14.70;;;;;;;;;;4993441;28;20427;-52
2022/04/15 03:47:48;;;;;;;20.40;14.37;;;;;;;;;;4993939;28;20490;-52
2022/04/15 03:50:15;;;;;;;19.30;14.37;;;;;;;;;;4993850;28;20439;-50
2022/04/15 03:52:46;;;;;;;17.40;13.87;;;;;;;;;;4993654;28;20411;-51
2022/04/15 03:55:12;;;;;;;20.70;13.83;;;;;;;;;;4993499;28;20424;-51
2022/04/15 03:57:38;;;;;;;17.90;13.63;;;;;;;;;;4993515;28;20550;-51
2022/04/15 04:00:08;;;;;;;17.40;14.10;;;;;;;;;;4993374;28;20878;-52
2022/04/15 04:02:34;;;;;;;19.23;15.50;;;;;;;;;;4993537;28;20426;-53
2022/04/15 04:05:00;;;;;;;22.00;12.87;;;;;;;;;;4993131;28;20484;-52
2022/04/15 04:07:26;;;;;;;22.90;15.03;;;;;;;;;;4993455;28;20922;-51
2022/04/15 04:09:52;;;;;;;20.20;15.40;;;;;;;;;;4993296;28;20950;-52
2022/04/15 04:12:18;;;;;;;24.30;15.10;;;;;;;;;;4993415;28;20410;-52
2022/04/15 04:14:44;;;;;;;20.40;14.43;;;;;;;;;;4992964;28;20443;-52
2022/04/15 04:17:10;;;;;;;22.00;15.57;;;;;;;;;;4993216;28;20489;-50
2022/04/15 04:19:36;;;;;;;26.23;15.07;;;;;;;;;;4993046;28;20413;-49
2022/04/15 04:22:03;;;;;;;22.83;14.30;;;;;;;;;;4993135;28;20409;-52
2022/04/15 04:24:29;;;;;;;22.93;14.40;;;;;;;;;;4992973;28;20484;-49
2022/04/15 04:26:54;;;;;;;19.87;15.07;;;;;;;;;;4992892;28;20523;-51
2022/04/15 04:29:20;;;;;;;21.27;15.00;;;;;;;;;;4992890;28;20460;-53
2022/04/15 04:31:46;;;;;;;22.00;15.80;;;;;;;;;;4993150;28;20407;-52
2022/04/15 04:34:12;;;;;;;24.63;14.50;;;;;;;;;;4992945;28;20407;-51
2022/04/15 04:36:38;;;;;;;20.93;15.00;;;;;;;;;;4992671;28;20458;-51
2022/04/15 04:39:08;;;;;;;20.47;15.90;;;;;;;;;;4992787;28;20438;-51
2022/04/15 04:41:33;;;;;;;18.67;14.70;;;;;;;;;;4992699;28;20851;-51
2022/04/15 04:43:59;;;;;;;19.40;15.17;;;;;;;;;;4992652;28;20431;-51
2022/04/15 04:46:25;;;;;;;24.40;15.50;;;;;;;;;;4992527;28;20821;-51
2022/04/15 04:48:52;;;;;;;23.17;16.70;;;;;;;;;;4992000;28;20433;-52
2022/04/15 04:51:18;;;;;;;19.40;15.97;;;;;;;;;;4992786;28;20505;-52
2022/04/15 04:53:44;;;;;;;23.67;16.30;;;;;;;;;;4992635;28;20853;-51
2022/04/15 04:56:09;;;;;;;20.93;15.90;;;;;;;;;;4992255;28;20488;-53
2022/04/15 04:58:35;;;;;;;21.80;16.60;;;;;;;;;;4992399;28;20462;-51
2022/04/15 05:01:01;;;;;;;30.50;16.40;;;;;;;;;;4992468;28;20407;-51
2022/04/15 05:03:27;;;;;;;25.20;16.40;;;;;;;;;;4992558;28;20494;-51
2022/04/15 05:05:53;;;;;;;26.07;16.33;;;;;;;;;;4992389;28;20430;-51
2022/04/15 05:08:19;;;;;;;28.57;15.63;;;;;;;;;;4992530;28;20410;-51
2022/04/15 05:10:45;;;;;;;22.30;16.07;;;;;;;;;;4992379;28;20462;-52
2022/04/15 05:13:11;;;;;;;21.70;14.80;;;;;;;;;;4992387;28;20416;-52
2022/04/15 05:15:37;;;;;;;21.90;13.63;;;;;;;;;;4992158;28;20428;-50
2022/04/15 05:18:03;;;;;;;20.13;14.83;;;;;;;;;;4992347;28;20465;-53
2022/04/15 05:20:29;;;;;;;18.80;14.43;;;;;;;;;;4992327;28;20808;-50
2022/04/15 05:22:56;;;;;;;21.87;14.90;;;;;;;;;;4992351;28;20403;-49
2022/04/15 05:25:22;;;;;;;23.73;13.90;;;;;;;;;;4990740;28;20431;-51
2022/04/15 05:27:48;;;;;;;26.87;14.73;;;;;;;;;;4992227;28;20526;-52
2022/04/15 05:30:13;;;;;;;23.47;14.20;;;;;;;;;;4992441;28;20467;-49
2022/04/15 05:32:39;;;;;;;24.20;14.50;;;;;;;;;;4992283;28;20422;-50
2022/04/15 05:35:07;;;;;;;24.50;15.10;;;;;;;;;;4991978;28;20463;-49
2022/04/15 05:37:33;;;;;;;21.17;14.30;;;;;;;;;;4992079;28;20459;-49
2022/04/15 05:39:58;;;;;;;22.00;14.10;;;;;;;;;;4992139;28;20412;-49
2022/04/15 05:42:28;;;;;;;23.00;14.87;;;;;;;;;;4992147;28;20408;-51
2022/04/15 05:44:54;;;;;;;26.60;14.70;;;;;;;;;;4991871;28;20404;-52
2022/04/15 05:47:20;;;;;;;19.57;13.90;;;;;;;;;;4992263;28;20447;-52
2022/04/15 05:49:46;;;;;;;20.27;14.10;;;;;;;;;;4992108;28;20451;-51
2022/04/15 05:52:14;;;;;;;22.93;15.07;;;;;;;;;;4992035;28;20490;-50
2022/04/15 05:54:40;;;;;;;23.90;13.33;;;;;;;;;;4991899;28;20420;-51
2022/04/15 05:57:06;;;;;;;20.43;14.27;;;;;;;;;;4992165;28;20481;-51
2022/04/15 05:59:32;;;;;;;21.70;14.07;;;;;;;;;;4993298;28;20432;-50
2022/04/15 06:01:58;;;;;;;21.30;13.87;;;;;;;;;;4995215;28;20779;-52
2022/04/15 06:04:24;;;;;;;23.83;16.30;;;;;;;;;;4994813;28;20415;-49
2022/04/15 06:06:50;;;;;;;21.37;13.80;;;;;;;;;;4995008;28;20669;-51
2022/04/15 06:09:16;;;;;;;20.53;15.07;;;;;;;;;;4995032;28;20400;-53
2022/04/15 06:11:42;;;;;;;22.70;15.43;;;;;;;;;;4995015;28;20404;-50
2022/04/15 06:14:08;;;;;;;20.70;14.97;;;;;;;;;;4994995;28;20431;-52
2022/04/15 06:16:37;;;;;;;22.10;15.40;;;;;;;;;;4994317;28;20483;-52
2022/04/15 06:19:04;;;;;;;20.60;15.30;;;;;;;;;;4994857;28;20412;-50
2022/04/15 06:21:31;;;;;;;21.80;15.60;;;;;;;;;;4994703;28;20446;-52
2022/04/15 06:23:56;;;;;;;21.50;15.30;;;;;;;;;;4994796;28;20396;-52
2022/04/15 06:26:22;;;;;;;26.70;15.53;;;;;;;;;;4994295;28;20432;-51
2022/04/15 06:28:48;;;;;;;17.23;11.90;;;;;;;;;;4994985;28;20460;-51
2022/04/15 06:31:14;;;;;;;19.37;14.43;;;;;;;;;;4995256;28;20400;-51
2022/04/15 06:33:41;;;;;;;18.97;13.63;;;;;;;;;;4995307;28;20432;-52
2022/04/15 06:36:07;;;;;;;21.60;13.70;;;;;;;;;;4994844;28;20554;-51
2022/04/15 06:38:33;;;;;;;21.03;15.03;;;;;;;;;;4994273;28;21031;-51
2022/04/15 06:40:59;;;;;;;24.60;13.50;;;;;;;;;;4994473;28;20485;-52
2022/04/15 06:43:25;;;;;;;19.13;12.60;;;;;;;;;;4995152;28;20400;-50
2022/04/15 06:45:51;;;;;;;20.87;13.13;;;;;;;;;;4994482;28;20435;-50
2022/04/15 06:48:17;;;;;;;24.40;13.40;;;;;;;;;;4990351;28;20438;-47
2022/04/15 06:50:44;;;;;;;20.37;13.90;;;;;;;;;;4994989;28;20420;-48
2022/04/15 06:53:10;;;;;;;27.30;12.90;;;;;;;;;;4994672;28;20918;-48
2022/04/15 06:55:36;;;;;;;24.73;12.97;;;;;;;;;;4994431;28;20435;-48
2022/04/15 06:58:02;;;;;;;16.03;12.77;;;;;;;;;;4994718;28;20475;-48
2022/04/15 07:00:28;;;;;;;20.23;13.30;;;;;;;;;;4994786;28;20436;-47
2022/04/15 07:02:55;;;;;;;17.93;13.20;;;;;;;;;;4995544;28;20431;-48
2022/04/15 07:05:21;;;;;;;18.87;13.67;;;;;;;;;;4996595;28;20416;-48
2022/04/15 07:07:48;;;;;;;18.67;13.30;;;;;;;;;;4994923;28;20425;-46
2022/04/15 07:10:14;;;;;;;17.80;13.23;;;;;;;;;;4994303;28;20405;-47
2022/04/15 07:12:40;;;;;;;14.97;11.90;;;;;;;;;;4993796;28;20757;-46
2022/04/15 07:15:06;;;;;;;15.20;11.27;;;;;;;;;;4994103;28;20947;-46
2022/04/15 07:17:32;;;;;;;13.77;9.67;;;;;;;;;;4994254;28;20559;-47
2022/04/15 07:19:58;;;;;;;12.90;8.80;;;;;;;;;;4993009;28;20475;-47
2022/04/15 07:22:24;;;;;;;11.57;9.37;;;;;;;;;;4992863;28;20543;-47
2022/04/15 07:24:51;;;;;;;14.30;9.67;;;;;;;;;;4992431;28;20404;-47
2022/04/15 07:27:17;;;;;;;12.90;8.97;;;;;;;;;;4993813;28;20480;-46
2022/04/15 07:29:44;;;;;;;10.37;9.20;;;;;;;;;;4993784;28;20408;-46
2022/04/15 07:32:11;;;;;;;9.00;7.47;;;;;;;;;;4994079;28;20403;-47
2022/04/15 07:34:37;;;;;;;10.43;8.47;;;;;;;;;;4993873;28;20470;-47
2022/04/15 07:37:04;;;;;;;9.53;7.10;;;;;;;;;;4994528;28;20452;-47
2022/04/15 07:39:30;;;;;;;7.67;6.93;;;;;;;;;;4994188;28;20404;-46
2022/04/15 07:41:56;;;;;;;8.20;6.90;;;;;;;;;;4994274;28;20432;-46
2022/04/15 07:44:22;;;;;;;5.70;5.13;;;;;;;;;;4993702;28;20404;-46
2022/04/15 07:46:49;;;;;;;6.37;5.27;;;;;;;;;;4993742;28;20452;-47
2022/04/15 07:49:15;;;;;;;7.97;5.13;;;;;;;;;;4994324;28;21092;-47
2022/04/15 07:51:42;;;;;;;5.90;4.80;;;;;;;;;;4993746;28;20869;-50
2022/04/15 07:54:08;;;;;;;9.03;5.00;;;;;;;;;;4993637;28;20439;-47
2022/04/15 07:56:34;;;;;;;5.50;4.70;;;;;;;;;;4993391;28;20908;-48
2022/04/15 07:59:01;;;;;;;6.07;5.20;;;;;;;;;;4993458;28;20419;-48
2022/04/15 08:01:30;;;;;;;5.63;4.40;;;;;;;;;;4993460;28;20876;-49
2022/04/15 08:03:56;;;;;;;5.03;4.50;;;;;;;;;;4993477;28;20432;-50
2022/04/15 08:06:23;;;;;;;7.90;5.00;;;;;;;;;;4993198;28;20442;-46
2022/04/15 08:08:50;;;;;;;5.27;4.10;;;;;;;;;;4993344;28;20427;-48
2022/04/15 08:11:16;;;;;;;4.70;4.30;;;;;;;;;;4993314;28;20780;-47
2022/04/15 08:13:42;;;;;;;6.40;4.63;;;;;;;;;;4993318;28;20831;-47
2022/04/15 08:16:09;;;;;;;5.60;3.83;;;;;;;;;;4992932;28;20777;-46
2022/04/15 08:18:35;;;;;;;5.93;4.43;;;;;;;;;;4992691;28;20947;-47
2022/04/15 08:21:01;;;;;;;5.23;3.63;;;;;;;;;;4993161;28;20499;-46
2022/04/15 08:23:27;;;;;;;4.20;3.90;;;;;;;;;;4989390;28;20851;-47
2022/04/15 08:25:53;;;;;;;4.13;3.77;;;;;;;;;;4997445;28;20444;-47
2022/04/15 08:28:22;;;;;;;4.60;3.90;;;;;;;;;;4998698;28;20916;-47
2022/04/15 08:30:48;;;;;;;6.60;4.47;;;;;;;;;;4996112;28;20404;-51
2022/04/15 08:33:14;;;;;;;6.83;5.33;;;;;;;;;;5000933;28;20700;-46
2022/04/15 08:35:40;;;;;;;6.37;5.77;;;;;;;;;;4992677;28;20424;-46
2022/04/15 08:38:07;;;;;;;6.10;4.83;;;;;;;;;;4992331;28;20531;-46
2022/04/15 08:40:35;;;;;;;6.73;5.10;;;;;;;;;;5004977;28;20970;-46
2022/04/15 08:43:02;;;;;;;6.43;4.50;;;;;;;;;;5004369;28;20912;-47
2022/04/15 08:45:28;;;;;;;6.70;5.63;;;;;;;;;;4992357;28;20440;-46
2022/04/15 08:48:01;;;;;;;5.93;5.13;;;;;;;;;;4985407;28;20425;-47
2022/04/15 08:50:28;;;;;;;6.47;4.90;;;;;;;;;;4991794;28;20427;-47
2022/04/15 08:52:55;;;;;;;9.10;4.90;;;;;;;;;;4982992;28;20420;-50
2022/04/15 08:55:21;;;;;;;8.43;6.77;;;;;;;;;;4991621;28;20877;-47
2022/04/15 08:57:50;;;;;;;7.57;6.30;;;;;;;;;;4994653;28;20452;-46
2022/04/15 09:00:17;;;;;;;7.07;6.43;;;;;;;;;;4992352;28;20474;-47
2022/04/15 09:02:43;;;;;;;7.63;6.93;;;;;;;;;;4990756;28;20508;-48
2022/04/15 09:05:11;;;;;;;8.30;6.63;;;;;;;;;;4992131;28;20452;-49
2022/04/15 09:07:37;;;;;;;8.20;7.07;;;;;;;;;;4984913;28;20491;-48
2022/04/15 09:12:45;;;;;;;9.33;7.20;;;;;;;;;;5521170;23;20225;-50
2022/04/15 09:15:12;;;;;;;9.37;7.57;;;;;;;;;;4973730;28;20531;-48
2022/04/15 09:17:39;;;;;;;7.90;7.10;;;;;;;;;;4972572;28;20472;-48
2022/04/15 09:20:05;;;;;;;8.30;7.30;;;;;;;;;;4973009;28;20405;-47
2022/04/15 09:22:31;;;;;;;7.53;6.83;;;;;;;;;;4972659;28;20437;-49
2022/04/15 09:24:58;;;;;;;11.63;7.50;;;;;;;;;;4972808;28;20405;-48
2022/04/15 09:27:24;;;;;;;8.23;6.70;;;;;;;;;;4972982;28;20444;-48
2022/04/15 09:29:51;;;;;;;8.57;7.27;;;;;;;;;;4973001;28;20408;-48
2022/04/15 09:32:17;;;;;;;10.53;7.73;;;;;;;;;;4983897;28;20474;-48
2022/04/15 09:34:55;;;;;;;10.63;7.97;;;;;;;;;;4959683;28;20543;-48
2022/04/15 09:37:26;;;;;;;12.83;7.60;;;;;;;;;;4970374;28;20452;-48
2022/04/15 09:40:05;;;;;;;9.00;7.67;;;;;;;;;;4974509;28;21216;-49
2022/04/15 09:42:34;;;;;;;10.17;7.83;;;;;;;;;;4967462;28;20452;-50
2022/04/15 09:45:11;;;;;;;9.20;7.77;;;;;;;;;;4977220;28;20409;-47
2022/04/15 09:47:37;;;;;;;7.77;6.93;;;;;;;;;;4965560;28;20441;-52
2022/04/15 09:50:05;;;;;;;9.50;8.30;;;;;;;;;;4987749;28;20836;-49
2022/04/15 09:52:31;;;;;;;9.67;6.83;;;;;;;;;;4977118;28;20796;-50
2022/04/15 09:54:59;;;;;;;7.80;6.67;;;;;;;;;;4976012;28;20412;-48
2022/04/15 09:57:28;;;;;;;10.77;7.83;;;;;;;;;;4976953;28;20459;-49
2022/04/15 09:59:55;;;;;;;6.90;6.20;;;;;;;;;;4962646;28;20425;-48
2022/04/15 10:02:22;;;;;;;11.07;7.40;;;;;;;;;;4960763;28;20429;-50
2022/04/15 10:04:48;;;;;;;10.60;6.93;;;;;;;;;;4977227;28;20812;-48
2022/04/15 10:07:15;;;;;;;14.30;7.70;;;;;;;;;;4976373;28;20448;-48
2022/04/15 10:09:42;;;;;;;10.93;7.53;;;;;;;;;;4962147;28;20510;-49
2022/04/15 10:12:08;;;;;;;18.77;9.60;;;;;;;;;;4976362;28;20449;-51
2022/04/15 10:14:35;;;;;;;17.13;9.50;;;;;;;;;;4977789;28;20607;-51
2022/04/15 10:17:05;;;;;;;17.60;10.77;;;;;;;;;;4979196;28;20484;-50
2022/04/15 10:19:33;;;;;;;15.60;11.23;;;;;;;;;;4978021;28;20419;-50
2022/04/15 10:21:59;;;;;;;17.97;11.70;;;;;;;;;;4976807;28;20483;-50
2022/04/15 10:24:26;;;;;;;15.43;10.80;;;;;;;;;;4977445;28;20413;-47
2022/04/15 10:26:57;;;;;;;16.20;11.47;;;;;;;;;;4959619;28;20909;-48
2022/04/15 10:29:23;;;;;;;22.33;12.40;;;;;;;;;;4977066;28;20500;-47
2022/04/15 10:31:49;;;;;;;15.43;10.20;;;;;;;;;;4975712;28;20436;-47
2022/04/15 10:34:16;;;;;;;17.30;11.47;;;;;;;;;;4963284;28;20414;-47
2022/04/15 10:36:46;;;;;;;13.03;9.40;;;;;;;;;;4963317;28;20417;-48
2022/04/15 10:39:14;;;;;;;12.70;9.40;;;;;;;;;;4976517;28;20425;-49
2022/04/15 10:41:44;;;;;;;12.90;9.57;;;;;;;;;;4975782;28;20524;-48
2022/04/15 10:44:11;;;;;;;14.47;10.70;;;;;;;;;;4976358;28;20491;-51
2022/04/15 10:46:38;;;;;;;13.53;10.80;;;;;;;;;;4974780;28;20435;-49
2022/04/15 10:49:20;;;;;;;18.93;10.70;;;;;;;;;;4976417;28;20429;-48
2022/04/15 10:51:46;;;;;;;14.57;10.00;;;;;;;;;;4974916;28;20445;-50
2022/04/15 10:54:33;;;;;;;25.60;14.50;;;;;;;;;;4959886;28;20811;-49
2022/04/15 10:57:03;;;;;;;29.13;16.77;;;;;;;;;;4972613;28;20963;-50
2022/04/15 11:02:18;;;;;;;34.60;20.67;;;;;;;;;;4975741;28;20570;-52
2022/04/15 11:04:49;;;;;;;37.10;21.77;;;;;;;;;;4975831;28;20437;-50
2022/04/15 11:07:17;;;;;;;33.77;21.07;;;;;;;;;;4973431;28;20429;-50
2022/04/15 11:09:44;;;;;;;30.00;21.30;;;;;;;;;;4971441;28;20919;-50
2022/04/15 11:12:11;;;;;;;30.93;19.90;;;;;;;;;;4962572;28;20438;-48
2022/04/15 11:14:38;;;;;;;32.27;21.17;;;;;;;;;;4979959;28;20467;-50
2022/04/15 11:17:09;;;;;;;32.07;19.20;;;;;;;;;;4987977;28;20462;-51
2022/04/15 11:19:36;;;;;;;31.80;22.50;;;;;;;;;;4969284;28;20421;-50
2022/04/15 11:22:02;;;;;;;29.10;20.10;;;;;;;;;;4976811;28;20984;-52
2022/04/15 11:24:30;;;;;;;27.03;19.03;;;;;;;;;;4958790;28;20426;-50
2022/04/15 11:27:03;;;;;;;28.33;20.40;;;;;;;;;;4971016;28;20411;-52
2022/04/15 11:29:33;;;;;;;33.37;22.93;;;;;;;;;;4976502;28;20422;-50
2022/04/15 11:32:00;;;;;;;30.50;21.50;;;;;;;;;;4957756;28;20492;-49
2022/04/15 11:34:26;;;;;;;30.87;22.27;;;;;;;;;;4967165;28;20410;-50
2022/04/15 11:36:59;;;;;;;32.00;21.97;;;;;;;;;;4977337;28;20405;-49
2022/04/15 11:39:25;;;;;;;27.87;19.90;;;;;;;;;;4965240;28;20791;-51
2022/04/15 11:41:52;;;;;;;23.93;18.00;;;;;;;;;;4955152;28;20465;-51
2022/04/15 11:44:20;;;;;;;21.03;16.80;;;;;;;;;;4967942;28;20477;-49
2022/04/15 11:47:15;;;;;;;22.83;16.70;;;;;;;;;;4974086;28;20407;-50
2022/04/15 11:49:42;;;;;;;24.50;18.40;;;;;;;;;;4974124;28;20394;-50
2022/04/15 11:52:09;;;;;;;24.57;18.30;;;;;;;;;;4973508;28;20809;-48
2022/04/15 11:54:38;;;;;;;25.60;18.30;;;;;;;;;;4973259;28;20418;-52
2022/04/15 11:57:04;;;;;;;21.13;15.67;;;;;;;;;;4954749;28;20432;-51
2022/04/15 11:59:38;;;;;;;22.77;16.17;;;;;;;;;;4973506;28;20403;-52
2022/04/15 12:02:04;;;;;;;20.90;15.40;;;;;;;;;;4973024;28;20440;-50
2022/04/15 12:04:30;;;;;;;19.70;16.23;;;;;;;;;;4974197;28;20414;-53
2022/04/15 12:06:57;;;;;;;21.43;15.70;;;;;;;;;;4971034;28;20400;-53
2022/04/15 12:09:29;;;;;;;23.10;17.33;;;;;;;;;;4972746;28;20400;-48
2022/04/15 12:12:11;;;;;;;22.40;16.07;;;;;;;;;;4973839;28;20500;-48
2022/04/15 12:14:49;;;;;;;18.40;15.57;;;;;;;;;;4987596;28;20524;-52
2022/04/15 12:17:17;;;;;;;17.60;15.60;;;;;;;;;;4958507;28;20928;-53
2022/04/15 12:19:43;;;;;;;20.50;15.30;;;;;;;;;;4980472;28;20466;-54
2022/04/15 12:22:09;;;;;;;12.87;11.57;;;;;;;;;;4972968;28;20987;-53
2022/04/15 12:24:35;;;;;;;16.43;14.33;;;;;;;;;;4973749;28;20437;-51
2022/04/15 12:27:01;;;;;;;19.97;15.30;;;;;;;;;;4959195;28;20413;-52
2022/04/15 12:32:24;;;;;;;15.80;14.17;;;;;;;;;;4976109;28;20479;-47
2022/04/15 12:34:56;;;;;;;20.40;15.00;;;;;;;;;;4973595;28;20423;-47
2022/04/15 12:37:41;;;;;;;16.47;14.53;;;;;;;;;;4973201;28;20874;-48
2022/04/15 12:40:17;;;;;;;16.03;14.33;;;;;;;;;;4954028;28;20434;-47
2022/04/15 12:42:44;;;;;;;18.00;12.57;;;;;;;;;;4970662;28;20470;-51
2022/04/15 12:45:21;;;;;;;17.03;13.73;;;;;;;;;;4973375;28;20440;-50
2022/04/15 12:48:13;;;;;;;18.10;15.00;;;;;;;;;;4971566;28;20422;-47
2022/04/15 12:50:40;;;;;;;16.80;14.10;;;;;;;;;;4995284;28;20454;-48
2022/04/15 12:53:17;;;;;;;19.97;15.87;;;;;;;;;;4972089;28;20440;-51
2022/04/15 12:55:43;;;;;;;18.60;14.33;;;;;;;;;;4973248;28;20933;-47
2022/04/15 12:58:24;;;;;;;18.40;16.37;;;;;;;;;;4972882;28;20533;-48
2022/04/15 13:00:53;;;;;;;19.70;16.47;;;;;;;;;;4973082;28;20487;-51
2022/04/15 13:03:23;;;;;;;19.97;17.70;;;;;;;;;;4953423;28;20436;-48
2022/04/15 13:05:49;;;;;;;22.27;18.37;;;;;;;;;;4953856;28;20398;-49
2022/04/15 13:08:15;;;;;;;19.87;16.70;;;;;;;;;;4971958;28;20438;-47
2022/04/15 13:10:42;;;;;;;17.93;14.50;;;;;;;;;;4972354;28;20397;-47
2022/04/15 13:13:08;;;;;;;19.80;16.00;;;;;;;;;;4972757;28;20436;-49
2022/04/15 13:15:34;;;;;;;23.53;17.23;;;;;;;;;;4972838;28;20442;-49
2022/04/15 13:18:00;;;;;;;21.10;15.63;;;;;;;;;;4972927;28;20464;-51
2022/04/15 13:20:27;;;;;;;19.67;15.13;;;;;;;;;;4973015;28;20442;-50
2022/04/15 13:22:53;;;;;;;18.90;15.07;;;;;;;;;;4972670;28;20423;-47
2022/04/15 13:25:19;;;;;;;21.80;15.40;;;;;;;;;;4972866;28;20472;-49
2022/04/15 13:27:45;;;;;;;16.37;13.70;;;;;;;;;;4972916;28;20434;-49
2022/04/15 13:30:11;;;;;;;19.83;14.70;;;;;;;;;;4972924;28;20384;-52
2022/04/15 13:32:37;;;;;;;15.80;12.80;;;;;;;;;;4972493;28;20424;-48
2022/04/15 13:35:03;;;;;;;12.90;11.10;;;;;;;;;;4972889;28;20432;-47
2022/04/15 13:37:29;;;;;;;15.27;10.67;;;;;;;;;;4972685;28;20438;-47
2022/04/15 13:39:55;;;;;;;15.00;12.20;;;;;;;;;;4972862;28;20387;-46
2022/04/15 13:42:22;;;;;;;15.30;10.20;;;;;;;;;;4972630;28;20417;-46
2022/04/15 13:44:48;;;;;;;13.87;10.97;;;;;;;;;;4972910;28;20387;-46
2022/04/15 13:47:14;;;;;;;11.20;10.10;;;;;;;;;;4972876;28;20409;-46
2022/04/15 13:49:40;;;;;;;14.97;11.30;;;;;;;;;;4971738;28;20440;-46
2022/04/15 13:56:34;;;;;;;14.27;10.83;;;;;;;;;;4972510;28;20410;-47
2022/04/15 13:57:39;;;;;;;10.73;9.03;;;;;;;;;;4972638;28;20597;-46
2022/04/15 14:00:05;;;;;;;14.40;11.60;;;;;;;;;;4972486;28;20425;-47
2022/04/15 14:02:31;;;;;;;21.80;17.30;;;;;;;;;;4972327;28;20432;-46
2022/04/15 14:04:58;;;;;;;21.23;13.90;;;;;;;;;;4972392;28;20432;-47
2022/04/15 14:07:24;;;;;;;14.63;12.00;;;;;;;;;;4972591;28;20478;-50
2022/04/15 14:09:50;;;;;;;17.10;12.60;;;;;;;;;;4972411;28;20429;-49
2022/04/15 14:12:16;;;;;;;15.13;12.10;;;;;;;;;;4972165;28;20447;-49
2022/04/15 14:14:42;;;;;;;13.73;12.23;;;;;;;;;;4972104;28;20422;-47
2022/04/15 14:17:08;;;;;;;15.87;12.40;;;;;;;;;;4972556;28;20506;-46
2022/04/15 14:19:34;;;;;;;20.63;16.23;;;;;;;;;;4972123;28;20468;-46
2022/04/15 14:22:00;;;;;;;20.93;16.47;;;;;;;;;;4975699;28;20442;-47
2022/04/15 14:24:27;;;;;;;21.17;15.07;;;;;;;;;;4974678;28;20460;-46
2022/04/15 14:26:53;;;;;;;15.80;13.93;;;;;;;;;;4975794;28;20413;-46
2022/04/15 14:29:21;;;;;;;19.50;16.33;;;;;;;;;;4975295;28;20904;-47
2022/04/15 14:31:47;;;;;;;19.87;16.37;;;;;;;;;;4973716;28;20520;-48
2022/04/15 14:34:13;;;;;;;20.57;15.17;;;;;;;;;;4975080;28;20755;-47